To NAV CANADA Home Page Login to a new session Search on AWWS site Disclaimer Vers la page française équivalente Tips FAQ What's new on the site To the Forecasts and Observations / NOTAM section To "File a Flight Plan" website Publications and other links Update of the User's profile FIC Telephone Numbers My Weather Data Folder Route Weather Data Regional Weather Data Local Weather Data To the Forecasts and Observations / NOTAM section
Request Generated 10/05/2022 at 19:21:45 UTC . Weather information available at that time is displayed.


Go to a specific product

Save this request

NOTAM

NOTAM


SIGMET
To the Product Selector

SIGMETS GFACN32

GFACN32 - No SIGMET bulletins in effect



AIRMET
To the Product Selector

AIRMETS GFACN32

GFACN32 - No AIRMET bulletins in effect



PIREP
To the Product Selector

FIR_WINNIPEG (WG)

WG - PIREP not available



METAR/TAF
To the Product Selector

REGINA INTL/SK    

METAR CYQR 051900Z 02013G19KT 15SM FEW030 FEW190 BKN250 12/05 A3027 RMK SC1AC1CI5 SLP268=
METAR CYQR 051800Z 36010G18KT 15SM FEW200 BKN250 13/05 A3025 RMK CI1CI4 SLP258=
METAR CYQR 051700Z 36013G19KT 15SM FEW200 BKN240 13/05 A3022 RMK CC1CI4 SLP251=

TAF CYQR 051740Z 0518/0618 01015KT P6SM BKN240
FM060000 05015KT P6SM BKN120
FM060800 09008KT P6SM SKC
RMK NXT FCST BY 060000Z

MOOSE JAW/AIR VICE MARSHAL C.M. MCEWEN/SK    

METAR CYMJ 051900Z 01014KT 15SM FEW020 FEW120 OVC240 11/05 A3030 RMK SC1AC2CI6 VIS LWR W SLP269=
METAR CYMJ 051800Z CCA 35015KT 15SM FEW020 FEW200 BKN240 12/05 A3029 RMK SC1CC2CI5 VIS LWR W SLP265=
METAR CYMJ 051800Z 35015KT 15SM FEW020 FEW200 BKN240 12/05 A3029 RMK SC1CC2CI5 VIS LWR W SLP265=
METAR CYMJ 051700Z 36010KT 15SM SCT200 BKN240 13/05 A3026 RMK CC3CI4 VIS LWR W SLP258=

TAF CYMJ 051740Z 0518/0606 01010G20KT P6SM SCT020 BKN200
FM052200 02010G20KT P6SM SCT100 BKN200
BECMG 0603/0605 06010KT
RMK NXT FCST BY 060000Z


RADAR PCPN RATE
To the Product Selector
Pacific Canada      Western Canada     

SATELLITE VISIBLE
To the Product Selector
West Canada      

SATELLITE INFRARED
To the Product Selector
West Canada     

GRAPHICAL FA CLOUDS & WEATHER FORECASTS
To the Product Selector
Graphical FA gfacn32      

GRAPHICAL FA ICING, TURBULENCE & FREEZING LEVEL FORECASTS
To the Product Selector
Graphical FA gfacn32      

FDTEXT Low Level FD. Temperatures are not forecast for the 3,000-foot level.
To the Product Selector
STN YQR - REGINA. SASK for use 3000 6000 9000 12000 18000
FDCN01 CWAO FCST BASED ON 051200 DATA VALID 051800 17-21 3520+06 3225+04 3129-02 3034-15
FDCN02 CWAO FCST BASED ON 051200 DATA VALID 060000 21-06 0215+02 3325+00 3230-04 3145-15
FDCN03 CWAO FCST BASED ON 051200 DATA VALID 061200 06-17 0310-02 3517-03 3425-07 3340-16



Your time UTC time
Weather data provided by Environment Canada and NAV CANADA